Time;durP1;ratioP1;P1;durP2;ratioP2;P2;SDS_P1;SDS_P2;PMS_P1;PMS_P2;Temp;Humidity;BMP_temperature;BMP_pressure;BME280_temperature;BME280_humidity;BME280_pressure;Samples;Min_cycle;Max_cycle;Signal;HPM_P1;HPM_P2
2022/10/04 00:01:11;;;;;;;10.50;5.30;;;5.40;99.90;;;;;;5051310;28;20025;-65
2022/10/04 00:03:41;;;;;;;20.05;5.00;;;5.40;99.90;;;;;;5050175;28;20137;-66
2022/10/04 00:06:19;;;;;;;20.20;4.73;;;5.30;99.90;;;;;;5051085;28;20035;-65
2022/10/04 00:08:54;;;;;;;10.20;4.43;;;5.40;99.90;;;;;;5051234;28;20041;-65
2022/10/04 00:11:33;;;;;;;8.02;4.90;;;5.30;99.90;;;;;;5050568;28;20457;-69
2022/10/04 00:14:17;;;;;;;57.95;5.35;;;5.30;99.90;;;;;;5051010;28;20025;-64
2022/10/04 00:16:43;;;;;;;9.32;4.22;;;5.30;99.90;;;;;;5049909;28;20037;-65
2022/10/04 00:19:14;;;;;;;47.78;5.32;;;5.40;99.90;;;;;;5049316;28;20569;-64
2022/10/04 00:21:55;;;;;;;73.13;5.68;;;5.40;99.90;;;;;;5050290;28;20120;-64
2022/10/04 00:24:25;;;;;;;25.25;4.80;;;5.50;99.90;;;;;;5050145;28;20086;-70
2022/10/04 00:26:50;;;;;;;62.00;4.95;;;5.50;99.90;;;;;;5050804;28;20051;-64
2022/10/04 00:29:25;;;;;;;18.08;4.28;;;5.40;99.90;;;;;;5051107;28;20025;-65
2022/10/04 00:32:08;;;;;;;58.88;4.80;;;5.50;99.90;;;;;;5050368;28;20029;-65
2022/10/04 00:34:34;;;;;;;8.27;4.15;;;5.40;99.90;;;;;;5049790;28;20029;-65
2022/10/04 00:37:00;;;;;;;9.60;4.10;;;5.30;99.90;;;;;;5050747;28;20437;-64
2022/10/04 00:39:38;;;;;;;17.02;4.43;;;5.20;99.90;;;;;;5049874;28;20025;-64
2022/10/04 00:42:30;;;;;;;6.28;3.63;;;5.10;99.90;;;;;;5050656;28;20074;-65
2022/10/04 00:45:05;;;;;;;7.53;3.80;;;5.10;99.90;;;;;;5050597;28;20029;-64
2022/10/04 00:47:37;;;;;;;20.80;4.32;;;5.10;99.90;;;;;;5049490;28;20029;-64
2022/10/04 00:50:32;;;;;;;6.30;3.88;;;5.10;99.90;;;;;;5050175;28;20033;-65
2022/10/04 00:53:00;;;;;;;12.93;3.95;;;5.20;99.90;;;;;;5050390;28;20456;-65
2022/10/04 00:55:55;;;;;;;6.68;3.97;;;5.10;99.90;;;;;;5049589;28;20041;-64
2022/10/04 00:58:33;;;;;;;13.48;4.13;;;5.00;99.90;;;;;;5049869;28;20029;-70
2022/10/04 01:01:00;;;;;;;25.85;3.90;;;5.00;99.90;;;;;;5050247;28;20047;-64
2022/10/04 01:03:35;;;;;;;9.07;3.90;;;5.00;99.90;;;;;;5049336;28;20032;-64
2022/10/04 01:06:05;;;;;;;143.20;6.25;;;5.00;99.90;;;;;;5048945;28;20028;-64
2022/10/04 01:08:30;;;;;;;43.35;4.47;;;5.00;99.90;;;;;;5048707;28;20055;-65
2022/10/04 01:11:02;;;;;;;45.67;4.63;;;5.10;99.90;;;;;;5049785;28;20037;-64
2022/10/04 01:13:41;;;;;;;44.80;5.00;;;5.10;99.90;;;;;;5049130;28;20028;-66
2022/10/04 01:16:14;;;;;;;8.90;3.97;;;5.10;99.90;;;;;;5050011;28;20032;-65
2022/10/04 01:18:41;;;;;;;97.15;5.32;;;5.10;99.90;;;;;;5048889;28;20021;-65
2022/10/04 01:21:15;;;;;;;11.20;4.38;;;5.10;99.90;;;;;;5049543;28;20059;-66
2022/10/04 01:23:56;;;;;;;14.82;4.10;;;5.10;99.90;;;;;;5048998;28;20024;-65
2022/10/04 01:26:28;;;;;;;7.82;3.83;;;5.10;99.90;;;;;;5049780;28;20037;-69
2022/10/04 01:28:59;;;;;;;67.68;5.13;;;5.00;99.90;;;;;;5049175;28;20055;-65
2022/10/04 01:31:28;;;;;;;;;;;4.90;99.90;;;;;;5048068;28;20559;-67
2022/10/04 01:33:54;;;;;;;85.65;4.88;;;4.90;99.90;;;;;;5049928;28;20353;-64
2022/10/04 01:36:20;;;;;;;59.80;4.05;;;4.90;99.90;;;;;;5049416;28;20134;-65
2022/10/04 01:38:47;;;;;;;7.20;3.40;;;4.90;99.90;;;;;;5049383;28;20086;-66
2022/10/04 01:41:16;;;;;;;29.98;3.90;;;4.90;99.90;;;;;;5049648;28;20025;-65
2022/10/04 01:43:47;;;;;;;7.75;3.80;;;4.80;99.90;;;;;;5047327;28;20100;-64
2022/10/04 01:46:26;;;;;;;18.30;3.80;;;4.70;99.90;;;;;;5049651;28;20025;-65
2022/10/04 01:48:55;;;;;;;11.73;3.58;;;4.70;99.90;;;;;;5049103;28;20055;-65
2022/10/04 01:51:24;;;;;;;6.32;3.53;;;4.70;99.90;;;;;;5049365;28;20040;-65
2022/10/04 01:54:10;;;;;;;10.73;3.45;;;4.60;99.90;;;;;;5049430;28;20031;-65
2022/10/04 01:56:55;;;;;;;10.30;3.85;;;4.60;99.90;;;;;;5048959;28;20021;-64
2022/10/04 01:59:26;;;;;;;23.23;3.92;;;4.60;99.90;;;;;;5048409;28;20369;-65
2022/10/04 02:01:58;;;;;;;7.35;4.00;;;4.70;99.90;;;;;;5048998;28;20107;-66
2022/10/04 02:04:31;;;;;;;6.75;3.88;;;4.70;99.90;;;;;;5048272;28;20033;-68
2022/10/04 02:06:59;;;;;;;6.90;3.97;;;4.60;99.90;;;;;;5049285;28;20588;-65
2022/10/04 02:09:29;;;;;;;5.70;3.53;;;4.60;99.90;;;;;;5048743;28;20086;-69
2022/10/04 02:11:58;;;;;;;8.73;4.05;;;4.50;99.90;;;;;;5049539;28;20040;-65
2022/10/04 02:14:32;;;;;;;7.35;4.28;;;4.50;99.90;;;;;;5048472;28;20036;-69
2022/10/04 02:17:00;;;;;;;9.27;4.80;;;4.50;99.90;;;;;;5049128;28;20099;-65
2022/10/04 02:19:33;;;;;;;10.45;4.68;;;4.40;99.90;;;;;;5048252;28;20057;-68
2022/10/04 02:22:02;;;;;;;26.58;4.60;;;4.50;99.90;;;;;;5049228;28;20107;-64
2022/10/04 02:24:29;;;;;;;50.47;4.75;;;4.40;99.90;;;;;;5047950;28;20582;-68
2022/10/04 02:26:55;;;;;;;36.13;4.07;;;4.40;99.90;;;;;;5049102;28;20438;-65
2022/10/04 02:29:21;;;;;;;11.85;3.85;;;4.40;99.90;;;;;;5049090;28;20035;-64
2022/10/04 02:34:34;;;;;;;10.82;3.47;;;4.30;99.90;;;;;;5048303;28;20600;-64
2022/10/04 02:37:05;;;;;;;44.28;4.18;;;4.40;99.90;;;;;;5048976;28;20465;-64
2022/10/04 02:39:46;;;;;;;5.55;3.33;;;4.40;99.90;;;;;;5047915;28;20037;-65
2022/10/04 02:42:23;;;;;;;12.25;3.47;;;4.40;99.90;;;;;;5052770;28;20036;-65
2022/10/04 02:45:01;;;;;;;7.35;3.70;;;4.40;99.90;;;;;;5052098;28;20037;-64
2022/10/04 02:47:36;;;;;;;13.73;4.50;;;4.30;99.90;;;;;;5052459;28;20033;-69
2022/10/04 02:50:15;;;;;;;8.38;3.90;;;4.20;99.90;;;;;;5052878;28;20047;-65
2022/10/04 02:52:50;;;;;;;31.48;4.07;;;4.20;99.90;;;;;;5051979;28;20036;-64
2022/10/04 02:55:28;;;;;;;8.57;3.50;;;4.20;99.90;;;;;;5052473;28;20548;-64
2022/10/04 02:57:57;;;;;;;100.47;5.53;;;4.10;99.90;;;;;;5052586;28;20021;-64
2022/10/04 03:00:28;;;;;;;10.00;3.70;;;4.20;99.90;;;;;;5052091;28;20029;-64
2022/10/04 03:03:21;;;;;;;33.60;3.83;;;4.20;99.90;;;;;;5052323;28;20028;-64
2022/10/04 03:05:57;;;;;;;7.10;3.90;;;4.20;99.90;;;;;;5050096;28;20507;-66
2022/10/04 03:08:25;;;;;;;5.72;3.30;;;4.20;99.90;;;;;;5051200;28;20128;-65
2022/10/04 03:10:51;;;;;;;28.77;4.20;;;4.20;99.90;;;;;;5052158;28;20071;-64
2022/10/04 03:13:19;;;;;;;6.22;3.63;;;4.20;99.90;;;;;;5052303;28;20037;-64
2022/10/04 03:15:46;;;;;;;5.88;3.20;;;4.20;99.90;;;;;;5051465;28;20029;-65
2022/10/04 03:18:14;;;;;;;9.75;3.85;;;4.10;99.90;;;;;;5052197;28;20024;-65
2022/10/04 03:20:40;;;;;;;28.85;3.85;;;4.10;99.90;;;;;;5051218;28;20322;-64
2022/10/04 03:23:07;;;;;;;9.50;4.32;;;4.10;99.90;;;;;;5050711;28;20428;-64
2022/10/04 03:26:08;;;;;;;21.98;4.45;;;4.10;99.90;;;;;;5051234;28;20028;-64
2022/10/04 03:28:36;;;;;;;7.75;3.70;;;4.10;99.90;;;;;;5046402;28;20137;-64
2022/10/04 03:31:02;;;;;;;5.97;3.42;;;4.00;99.90;;;;;;5051936;28;20032;-65
2022/10/04 03:33:29;;;;;;;6.88;3.80;;;4.00;99.90;;;;;;5051430;28;20029;-69
2022/10/04 03:35:59;;;;;;;5.88;3.33;;;4.00;99.90;;;;;;5051237;28;20025;-65
2022/10/04 03:38:27;;;;;;;9.00;4.15;;;4.00;99.90;;;;;;5051911;28;20029;-64
2022/10/04 03:40:56;;;;;;;35.50;4.38;;;4.00;99.90;;;;;;5051148;28;20033;-66
2022/10/04 03:43:30;;;;;;;7.38;4.13;;;4.00;99.90;;;;;;5051725;28;20032;-66
2022/10/04 03:45:57;;;;;;;12.40;3.88;;;4.00;99.90;;;;;;5051436;28;20037;-65
2022/10/04 03:48:51;;;;;;;9.93;3.38;;;4.00;99.90;;;;;;5051618;28;20079;-64
2022/10/04 03:51:20;;;;;;;16.35;3.95;;;4.00;99.90;;;;;;5050623;28;20091;-65
2022/10/04 03:53:54;;;;;;;25.00;4.20;;;3.90;99.90;;;;;;5050228;28;20049;-64
2022/10/04 03:56:29;;;;;;;10.27;3.90;;;4.00;99.90;;;;;;5051350;28;20615;-65
2022/10/04 03:58:55;;;;;;;7.47;4.18;;;4.00;99.90;;;;;;5050755;28;20031;-65
2022/10/04 04:01:42;;;;;;;43.88;9.98;;;4.00;99.90;;;;;;5051208;28;20021;-64
2022/10/04 04:04:17;;;;;;;33.30;10.45;;;4.10;99.90;;;;;;5049933;28;20033;-65
2022/10/04 04:07:15;;;;;;;11.55;6.47;;;4.10;99.90;;;;;;5050543;28;20044;-64
2022/10/04 04:09:59;;;;;;;8.45;4.72;;;4.10;99.90;;;;;;5041819;28;20048;-65
2022/10/04 04:12:37;;;;;;;10.43;4.43;;;4.10;99.90;;;;;;5051291;28;20021;-65
2022/10/04 04:15:06;;;;;;;53.30;4.78;;;4.10;99.90;;;;;;5051251;28;20029;-66
2022/10/04 04:17:47;;;;;;;230.10;8.73;;;4.10;99.90;;;;;;5050834;28;20037;-69
2022/10/04 04:20:19;;;;;;;57.95;4.60;;;3.90;99.90;;;;;;5050619;28;20620;-65
2022/10/04 04:22:58;;;;;;;11.50;3.78;;;4.00;99.90;;;;;;5050343;28;20040;-65
2022/10/04 04:25:25;;;;;;;9.00;4.18;;;3.90;99.90;;;;;;5050978;28;20059;-65
2022/10/04 04:27:57;;;;;;;6.28;4.00;;;3.90;99.90;;;;;;5049681;28;20033;-65
2022/10/04 04:30:23;;;;;;;7.78;4.35;;;4.00;99.90;;;;;;5050717;28;20453;-64
2022/10/04 04:32:53;;;;;;;8.95;4.38;;;4.10;99.90;;;;;;5049942;28;20028;-64
2022/10/04 04:35:31;;;;;;;7.45;4.15;;;4.00;99.90;;;;;;5050803;28;20082;-64
2022/10/04 04:38:05;;;;;;;10.23;5.28;;;4.10;99.90;;;;;;5050526;28;20029;-66
2022/10/04 04:40:31;;;;;;;10.48;4.45;;;4.20;99.90;;;;;;5050434;28;20104;-66
2022/10/04 04:43:00;;;;;;;8.93;4.95;;;4.10;99.90;;;;;;5050226;28;20107;-64
2022/10/04 04:45:29;;;;;;;9.60;5.15;;;4.10;99.90;;;;;;5050500;28;20032;-65
2022/10/04 04:47:56;;;;;;;9.75;4.82;;;4.10;99.90;;;;;;5049698;28;20021;-64
2022/10/04 04:50:26;;;;;;;10.05;4.50;;;4.10;99.90;;;;;;5050282;28;20040;-64
2022/10/04 04:53:04;;;;;;;9.23;4.60;;;4.10;99.90;;;;;;5048933;28;20112;-65
2022/10/04 04:55:40;;;;;;;13.48;4.60;;;4.00;99.90;;;;;;5050410;28;20033;-64
2022/10/04 04:58:07;;;;;;;9.48;4.40;;;4.00;99.90;;;;;;5050156;28;20035;-64
2022/10/04 05:00:37;;;;;;;14.50;4.65;;;4.10;99.90;;;;;;5049624;28;20036;-69
2022/10/04 05:03:06;;;;;;;9.43;4.70;;;4.10;99.90;;;;;;5049812;28;20017;-65
2022/10/04 05:05:35;;;;;;;14.40;5.63;;;4.10;99.90;;;;;;5049717;28;20079;-66
2022/10/04 05:08:21;;;;;;;11.90;5.18;;;4.10;99.90;;;;;;5049924;28;20036;-64
2022/10/04 05:11:05;;;;;;;10.82;4.45;;;4.10;99.90;;;;;;5047911;28;20033;-64
2022/10/04 05:13:59;;;;;;;11.52;5.20;;;4.10;99.90;;;;;;5050051;28;20033;-64
2022/10/04 05:16:57;;;;;;;12.27;4.30;;;4.10;99.90;;;;;;5048969;28;20047;-65
2022/10/04 05:19:26;;;;;;;19.70;5.00;;;4.20;99.90;;;;;;5037187;28;20037;-65
2022/10/04 05:21:55;;;;;;;12.80;5.60;;;4.20;99.90;;;;;;5048604;28;20040;-65
2022/10/04 05:24:22;;;;;;;37.88;5.57;;;4.10;99.90;;;;;;5049216;28;20481;-64
2022/10/04 05:26:54;;;;;;;11.68;4.93;;;4.10;99.90;;;;;;5048699;28;20052;-64
2022/10/04 05:29:25;;;;;;;13.70;5.82;;;4.10;99.90;;;;;;5049470;28;20122;-64
2022/10/04 05:32:14;;;;;;;90.70;6.32;;;4.10;99.90;;;;;;5048936;28;20059;-64
2022/10/04 05:34:44;;;;;;;12.40;4.72;;;4.10;99.90;;;;;;5048490;28;20045;-65
2022/10/04 05:37:28;;;;;;;102.50;6.20;;;4.00;99.90;;;;;;5049765;28;20490;-64
2022/10/04 05:40:12;;;;;;;24.25;5.20;;;3.90;99.90;;;;;;5048796;28;20071;-64
2022/10/04 05:42:44;;;;;;;12.15;4.88;;;4.00;99.90;;;;;;5049050;28;20037;-69
2022/10/04 05:45:30;;;;;;;63.17;6.25;;;3.90;99.90;;;;;;5049155;28;20040;-64
2022/10/04 05:48:00;;;;;;;79.53;6.10;;;3.90;99.90;;;;;;5048732;28;20036;-64
2022/10/04 05:50:34;;;;;;;50.80;5.22;;;3.90;99.90;;;;;;5049184;28;20035;-64
2022/10/04 05:53:32;;;;;;;33.35;4.63;;;3.80;99.90;;;;;;5048298;28;21009;-64
2022/10/04 05:56:39;;;;;;;15.48;4.88;;;3.90;99.90;;;;;;5047638;28;20086;-65
2022/10/04 05:59:26;;;;;;;17.88;4.75;;;3.90;99.90;;;;;;5049330;28;20037;-66
2022/10/04 06:02:17;;;;;;;19.48;4.63;;;3.90;99.90;;;;;;5048579;28;20029;-66
2022/10/04 06:05:03;;;;;;;10.63;4.07;;;3.90;99.90;;;;;;5048516;28;20086;-64
2022/10/04 06:07:39;;;;;;;10.82;4.10;;;4.00;99.90;;;;;;5049375;28;20488;-65
2022/10/04 06:10:29;;;;;;;7.43;4.15;;;4.00;99.90;;;;;;5048583;28;20021;-65
2022/10/04 06:13:32;;;;;;;6.90;3.70;;;4.10;99.90;;;;;;5048178;28;20033;-65
2022/10/04 06:16:03;;;;;;;7.90;4.05;;;4.10;99.90;;;;;;5050589;28;20032;-64
2022/10/04 06:18:38;;;;;;;9.18;4.32;;;4.10;99.90;;;;;;5051913;28;20415;-64
2022/10/04 06:21:20;;;;;;;8.32;4.32;;;4.20;99.90;;;;;;5052950;28;20056;-64
2022/10/04 06:24:00;;;;;;;14.73;4.70;;;4.20;99.90;;;;;;5052439;28;20028;-64
2022/10/04 06:26:34;;;;;;;11.83;4.80;;;4.30;99.90;;;;;;5053322;28;20041;-64
2022/10/04 06:29:07;;;;;;;13.25;5.97;;;4.40;99.90;;;;;;5052412;28;20029;-64
2022/10/04 06:31:51;;;;;;;12.18;6.07;;;4.60;99.90;;;;;;5053293;28;20473;-64
2022/10/04 06:34:28;;;;;;;13.88;6.13;;;4.60;99.90;;;;;;5053145;28;20078;-65
2022/10/04 06:37:16;;;;;;;12.38;6.07;;;4.70;99.90;;;;;;5051963;28;20033;-64
2022/10/04 06:39:53;;;;;;;17.38;5.95;;;4.80;99.90;;;;;;5052138;28;20051;-69
2022/10/04 06:42:57;;;;;;;10.95;5.22;;;4.80;99.90;;;;;;5053021;28;20474;-64
2022/10/04 06:45:35;;;;;;;11.48;5.25;;;5.00;99.90;;;;;;5046872;28;20145;-63
2022/10/04 06:48:21;;;;;;;10.77;5.20;;;5.10;99.90;;;;;;5052033;28;20021;-66
2022/10/04 06:50:50;;;;;;;10.40;5.68;;;5.10;99.90;;;;;;5040123;28;20060;-65
2022/10/04 06:53:23;;;;;;;11.75;4.90;;;5.20;99.90;;;;;;5052450;28;20044;-64
2022/10/04 06:56:11;;;;;;;9.60;5.35;;;5.40;99.90;;;;;;5051576;28;20029;-64
2022/10/04 06:58:49;;;;;;;10.93;5.35;;;5.50;99.90;;;;;;5052662;28;20029;-65
2022/10/04 07:01:21;;;;;;;13.93;5.75;;;5.40;99.90;;;;;;5052555;28;20087;-64
2022/10/04 07:03:54;;;;;;;11.27;5.80;;;5.50;99.90;;;;;;5051672;28;20025;-65
2022/10/04 07:06:30;;;;;;;13.20;6.30;;;5.60;99.90;;;;;;5052414;28;20094;-63
2022/10/04 07:09:01;;;;;;;13.82;6.03;;;5.70;99.90;;;;;;5051704;28;20021;-64
2022/10/04 07:11:52;;;;;;;13.68;6.20;;;5.80;99.90;;;;;;5052431;28;20029;-64
2022/10/04 07:14:19;;;;;;;13.00;6.45;;;5.80;99.90;;;;;;5052103;28;20060;-65
2022/10/04 07:17:02;;;;;;;12.63;5.60;;;5.90;99.90;;;;;;5051910;28;20087;-69
2022/10/04 07:19:30;;;;;;;12.07;5.95;;;5.90;99.90;;;;;;5052102;28;20416;-66
2022/10/04 07:22:11;;;;;;;12.13;5.82;;;6.00;99.90;;;;;;5051452;28;20029;-64
2022/10/04 07:24:55;;;;;;;13.65;5.32;;;6.10;99.90;;;;;;5052124;28;20148;-64
2022/10/04 07:29:19;;;;;;;15.30;6.72;;;6.20;99.90;;;;;;5051411;28;20397;-64
2022/10/04 07:30:54;;;;;;;10.70;5.60;;;6.30;99.90;;;;;;5051633;28;20100;-66
2022/10/04 07:33:24;;;;;;;17.88;6.07;;;6.40;99.90;;;;;;5051840;28;20060;-63
2022/10/04 07:36:07;;;;;;;11.55;5.88;;;6.60;99.90;;;;;;5050889;28;20108;-64
2022/10/04 07:38:44;;;;;;;16.08;7.60;;;6.70;99.90;;;;;;5051784;28;20107;-64
2022/10/04 07:41:19;;;;;;;14.82;7.50;;;6.80;99.90;;;;;;5051653;28;20466;-65
2022/10/04 07:43:51;;;;;;;14.13;6.97;;;7.00;99.90;;;;;;5051561;28;20380;-70
2022/10/04 07:46:41;;;;;;;16.52;7.38;;;7.20;99.90;;;;;;5050594;28;20037;-66
2022/10/04 07:49:19;;;;;;;13.65;6.20;;;7.40;99.90;;;;;;5050253;28;20047;-65
2022/10/04 07:52:18;;;;;;;14.02;6.20;;;7.60;99.90;;;;;;5051242;28;20040;-68
2022/10/04 07:54:56;;;;;;;14.98;6.07;;;7.70;99.90;;;;;;5051087;28;20108;-69
2022/10/04 07:57:43;;;;;;;28.20;13.43;;;7.90;99.90;;;;;;5051320;28;20104;-65
2022/10/04 08:00:23;;;;;;;23.00;10.80;;;8.20;99.90;;;;;;5049790;28;20032;-64
2022/10/04 08:03:03;;;;;;;27.20;12.07;;;8.50;99.90;;;;;;5050402;28;20381;-64
2022/10/04 08:06:03;;;;;;;20.08;8.10;;;8.70;99.90;;;;;;5050649;28;20375;-63
2022/10/04 08:08:53;;;;;;;15.00;6.60;;;8.90;99.90;;;;;;5051184;28;20095;-64
2022/10/04 08:11:26;;;;;;;13.83;5.43;;;9.20;99.90;;;;;;5051625;28;20021;-64
2022/10/04 08:14:22;;;;;;;21.58;7.40;;;9.40;99.90;;;;;;5050574;28;20033;-65
2022/10/04 08:17:19;;;;;;;23.08;8.77;;;9.60;99.90;;;;;;5050258;28;20424;-70
2022/10/04 08:19:47;;;;;;;66.85;21.90;;;9.70;99.90;;;;;;5050615;28;20049;-68
2022/10/04 08:22:28;;;;;;;16.73;6.28;;;9.90;99.90;;;;;;5050817;28;20493;-65
2022/10/04 08:25:27;;;;;;;14.40;5.82;;;10.00;99.90;;;;;;5049716;28;20033;-64
2022/10/04 08:31:08;;;;;;;7.75;3.65;;;10.30;99.90;;;;;;5049628;28;20256;-66
2022/10/04 08:33:53;;;;;;;13.95;4.22;;;10.40;99.90;;;;;;5050808;28;20450;-64
2022/10/04 08:36:41;;;;;;;10.27;3.65;;;10.50;99.90;;;;;;5050784;28;20033;-64
2022/10/04 08:39:36;;;;;;;9.48;3.92;;;10.50;99.90;;;;;;5047835;28;20162;-65
2022/10/04 08:42:20;;;;;;;10.57;4.03;;;10.50;99.90;;;;;;5050292;28;20029;-65
2022/10/04 08:44:55;;;;;;;10.85;3.28;;;10.60;99.90;;;;;;5050450;28;20496;-69
2022/10/04 08:47:48;;;;;;;7.25;3.28;;;10.70;99.90;;;;;;5050534;28;20029;-64
2022/10/04 08:50:25;;;;;;;11.18;3.20;;;10.70;99.90;;;;;;5037176;28;20436;-63
2022/10/04 08:53:39;;;;;;;14.48;5.65;;;10.80;99.90;;;;;;5049688;28;20040;-63
2022/10/04 08:56:42;;;;;;;13.30;3.72;;;10.90;99.90;;;;;;5032399;28;20040;-65
2022/10/04 08:59:32;;;;;;;8.60;3.08;;;11.00;99.90;;;;;;5048931;28;20063;-63
2022/10/04 09:01:58;;;;;;;8.00;3.10;;;11.20;99.90;;;;;;5049535;28;20082;-65
2022/10/04 09:04:36;;;;;;;9.20;3.35;;;11.40;99.90;;;;;;5048947;28;20033;-64
2022/10/04 09:07:44;;;;;;;8.15;3.47;;;11.50;99.90;;;;;;5049477;28;20037;-65
2022/10/04 09:10:33;;;;;;;6.78;3.00;;;11.70;99.90;;;;;;5048861;28;20025;-65
2022/10/04 09:13:21;;;;;;;11.27;2.80;;;11.80;99.90;;;;;;5028148;28;20033;-64
2022/10/04 09:15:55;;;;;;;5.80;2.72;;;11.80;99.90;;;;;;5030188;28;20118;-63
2022/10/04 09:18:44;;;;;;;11.45;3.10;;;11.90;99.90;;;;;;5030049;28;20033;-64
2022/10/04 09:21:21;;;;;;;8.40;3.17;;;12.00;99.90;;;;;;5029236;28;20050;-64
2022/10/04 09:24:25;;;;;;;7.90;3.33;;;12.40;99.90;;;;;;5031454;28;20036;-64
2022/10/04 09:27:13;;;;;;;5.85;2.38;;;12.70;99.90;;;;;;5047697;28;20052;-68
2022/10/04 09:30:18;;;;;;;8.27;3.03;;;13.00;99.90;;;;;;5049911;28;20111;-65
2022/10/04 09:33:05;;;;;;;8.98;2.75;;;13.20;99.90;;;;;;5037066;28;20037;-62
2022/10/04 09:36:15;;;;;;;8.07;2.50;;;13.30;99.90;;;;;;5049794;28;20041;-66
2022/10/04 09:39:26;;;;;;;5.28;2.72;;;13.50;99.90;;;;;;5037862;28;20124;-63
2022/10/04 09:42:25;;;;;;;5.72;2.40;;;13.60;99.90;;;;;;5049284;28;20029;-68
2022/10/04 09:45:04;;;;;;;7.45;2.60;;;13.70;99.90;;;;;;5049181;28;20044;-68
2022/10/04 09:47:37;;;;;;;8.35;2.47;;;13.80;99.90;;;;;;5049320;28;20048;-65
2022/10/04 09:50:17;;;;;;;9.65;2.70;;;13.90;99.90;;;;;;5048445;28;20029;-64
2022/10/04 09:52:49;;;;;;;7.50;2.78;;;14.00;99.90;;;;;;5049648;28;20028;-64
2022/10/04 09:55:50;;;;;;;11.52;2.40;;;14.20;99.90;;;;;;5048326;28;20033;-64
2022/10/04 09:58:45;;;;;;;6.45;2.60;;;14.30;99.90;;;;;;5048964;28;20029;-64
2022/10/04 10:01:52;;;;;;;6.00;2.50;;;14.40;99.90;;;;;;5048656;28;20225;-63
2022/10/04 10:05:01;;;;;;;5.72;2.58;;;14.50;99.90;;;;;;5040952;28;20095;-65
2022/10/04 10:07:32;;;;;;;9.57;2.65;;;14.50;99.90;;;;;;5049280;28;20140;-65
2022/10/04 10:13:50;;;;;;;6.82;2.72;;;14.80;99.90;;;;;;5048378;28;20032;-64
2022/10/04 10:16:37;;;;;;;8.27;2.63;;;15.00;99.90;;;;;;5023454;28;20128;-65
2022/10/04 10:19:20;;;;;;;7.03;2.45;;;15.00;99.90;;;;;;5028534;28;20026;-65
2022/10/04 10:22:09;;;;;;;8.27;2.33;;;15.20;99.90;;;;;;5029352;28;20056;-64
2022/10/04 10:25:03;;;;;;;6.35;2.08;;;15.30;99.90;;;;;;5028852;28;20442;-66
2022/10/04 10:28:02;;;;;;;7.15;2.42;;;15.40;99.90;;;;;;5029120;28;20162;-64
2022/10/04 10:31:09;;;;;;;8.10;2.85;;;15.70;99.90;;;;;;5029202;28;20064;-67
2022/10/04 10:33:42;;;;;;;8.73;2.42;;;15.90;99.90;;;;;;5016585;28;20049;-65
2022/10/04 10:36:42;;;;;;;9.07;2.45;;;15.90;99.90;;;;;;5028454;28;20446;-67
2022/10/04 10:39:20;;;;;;;7.30;2.53;;;16.00;99.90;;;;;;5028381;28;20028;-66
2022/10/04 10:42:39;;;;;;;5.88;2.28;;;15.90;99.90;;;;;;5032642;28;20385;-64
2022/10/04 10:45:44;;;;;;;6.88;2.33;;;16.00;99.90;;;;;;5022373;28;20152;-66
2022/10/04 10:48:28;;;;;;;6.97;2.30;;;16.10;99.90;;;;;;5028174;28;20431;-62
2022/10/04 10:51:02;;;;;;;7.90;2.22;;;16.30;99.90;;;;;;5029142;28;20029;-71
2022/10/04 10:54:00;;;;;;;8.73;2.63;;;16.50;99.90;;;;;;5029072;28;20046;-66
2022/10/04 10:56:55;;;;;;;9.25;2.70;;;16.70;99.90;;;;;;5016328;28;20045;-66
2022/10/04 10:59:40;;;;;;;5.50;2.42;;;16.80;99.90;;;;;;5029313;28;20022;-65
2022/10/04 11:02:24;;;;;;;6.72;2.90;;;17.10;99.90;;;;;;5030552;28;20037;-67
2022/10/04 11:05:25;;;;;;;8.98;3.25;;;17.10;99.90;;;;;;5032755;28;20105;-63
2022/10/04 11:08:10;;;;;;;5.13;2.70;;;17.10;99.90;;;;;;5032714;28;20048;-66
2022/10/04 11:10:48;;;;;;;8.38;2.47;;;17.00;99.90;;;;;;5032611;28;20110;-64
2022/10/04 11:13:33;;;;;;;6.65;2.58;;;17.10;99.90;;;;;;5043611;28;20031;-67
2022/10/04 11:16:27;;;;;;;7.35;2.70;;;17.60;99.90;;;;;;5051486;28;20485;-69
2022/10/04 11:19:15;;;;;;;9.75;2.70;;;17.60;99.90;;;;;;5052767;28;20025;-64
2022/10/04 11:22:11;;;;;;;7.32;2.50;;;17.90;99.90;;;;;;5052370;28;20033;-63
2022/10/04 11:25:07;;;;;;;7.38;2.42;;;17.70;99.90;;;;;;5052234;28;20025;-66
2022/10/04 11:27:57;;;;;;;8.68;3.28;;;17.50;99.90;;;;;;5052225;28;20037;-65
2022/10/04 11:30:25;;;;;;;7.28;2.45;;;17.60;99.90;;;;;;5051765;28;20029;-64
2022/10/04 11:33:21;;;;;;;7.00;2.67;;;17.60;99.90;;;;;;5052025;28;20037;-66
2022/10/04 11:35:57;;;;;;;6.03;2.38;;;17.60;99.90;;;;;;5052165;28;20040;-65
2022/10/04 11:38:57;;;;;;;9.82;2.90;;;17.70;99.90;;;;;;5051611;28;20028;-63
2022/10/04 11:41:38;;;;;;;7.43;2.80;;;17.90;99.90;;;;;;5049635;28;20059;-65
2022/10/04 11:44:16;;;;;;;7.78;2.80;;;18.10;99.90;;;;;;5050998;28;20040;-65
2022/10/04 11:46:56;;;;;;;8.25;3.42;;;18.00;99.90;;;;;;5051696;28;20029;-66
2022/10/04 11:49:51;;;;;;;6.57;2.70;;;18.10;99.90;;;;;;5051300;28;20029;-64
2022/10/04 11:52:28;;;;;;;6.15;2.92;;;18.20;99.90;;;;;;5050535;28;20831;-67
2022/10/04 11:55:07;;;;;;;10.45;2.97;;;18.10;99.90;;;;;;5051483;28;20025;-64
2022/10/04 11:57:38;;;;;;;3.97;2.70;;;18.20;99.90;;;;;;5051240;28;20545;-66
2022/10/04 12:00:19;;;;;;;5.95;2.85;;;18.50;99.90;;;;;;5033039;28;20373;-66
2022/10/04 12:03:01;;;;;;;7.90;3.00;;;18.50;99.90;;;;;;5051692;28;20040;-64
2022/10/04 12:05:54;;;;;;;10.45;2.80;;;18.20;99.90;;;;;;5051513;28;20036;-67
2022/10/04 12:08:26;;;;;;;7.05;2.85;;;18.30;99.90;;;;;;5050362;28;20623;-64
2022/10/04 12:11:20;;;;;;;6.20;2.55;;;18.40;99.90;;;;;;5051526;28;20808;-64
2022/10/04 12:14:08;;;;;;;5.60;2.40;;;18.30;99.90;;;;;;5050459;28;20040;-65
2022/10/04 12:16:47;;;;;;;5.43;2.88;;;18.50;99.90;;;;;;5051703;28;20423;-64
2022/10/04 12:19:51;;;;;;;9.35;2.67;;;18.50;99.90;;;;;;5050208;28;20031;-67
2022/10/04 12:22:35;;;;;;;6.00;2.58;;;18.60;99.90;;;;;;5050712;28;20112;-66
2022/10/04 12:25:15;;;;;;;5.25;3.10;;;18.50;99.90;;;;;;5049707;28;20111;-72
2022/10/04 12:27:51;;;;;;;8.55;2.60;;;18.50;99.90;;;;;;5050864;28;20363;-64
2022/10/04 12:30:42;;;;;;;4.50;2.38;;;18.50;99.90;;;;;;5050373;28;20633;-67
2022/10/04 12:33:25;;;;;;;5.13;2.95;;;18.50;99.90;;;;;;5050240;28;20024;-65
2022/10/04 12:35:57;;;;;;;7.00;2.70;;;18.70;99.90;;;;;;5050988;28;20040;-66
2022/10/04 12:38:23;;;;;;;7.80;2.92;;;18.70;99.90;;;;;;5049842;28;20025;-66
2022/10/04 12:41:22;;;;;;;8.30;2.30;;;18.90;99.90;;;;;;5050538;28;20035;-64
2022/10/04 12:44:33;;;;;;;6.70;2.47;;;18.80;99.90;;;;;;5050819;28;20021;-64
2022/10/04 12:47:36;;;;;;;9.43;2.58;;;18.70;99.90;;;;;;5049703;28;20436;-66
2022/10/04 12:50:21;;;;;;;6.28;2.78;;;18.60;99.90;;;;;;5050394;28;20104;-68
2022/10/04 12:52:57;;;;;;;5.10;2.42;;;18.90;99.90;;;;;;5050561;28;20043;-66
2022/10/04 12:55:44;;;;;;;7.50;2.50;;;19.20;99.90;;;;;;5049659;28;20029;-67
2022/10/04 12:58:50;;;;;;;6.13;2.35;;;19.30;99.90;;;;;;5048413;28;20032;-65
2022/10/04 13:01:18;;;;;;;6.85;2.80;;;19.30;99.90;;;;;;5038112;28;20033;-67
2022/10/04 13:03:44;;;;;;;5.55;2.67;;;19.20;99.90;;;;;;5050184;28;20496;-63
2022/10/04 13:06:25;;;;;;;10.02;2.72;;;19.30;99.90;;;;;;5049498;28;20033;-64
2022/10/04 13:09:15;;;;;;;6.55;2.50;;;19.40;99.90;;;;;;5049975;28;20036;-65
2022/10/04 13:11:59;;;;;;;4.40;2.45;;;19.20;99.90;;;;;;5049955;28;20074;-67
2022/10/04 13:15:09;;;;;;;5.95;2.50;;;19.30;99.90;;;;;;5048704;28;20108;-65
2022/10/04 13:18:08;;;;;;;5.65;2.22;;;19.60;99.90;;;;;;5049781;28;20469;-65
2022/10/04 13:20:44;;;;;;;5.13;2.85;;;19.70;99.90;;;;;;5049693;28;20049;-67
2022/10/04 13:23:20;;;;;;;5.70;2.40;;;19.70;99.90;;;;;;5048780;28;20025;-64
2022/10/04 13:26:09;;;;;;;7.55;2.75;;;20.00;99.90;;;;;;5048058;28;20029;-67
2022/10/04 13:29:01;;;;;;;5.32;2.55;;;19.90;99.90;;;;;;5050029;28;20060;-65
2022/10/04 13:31:42;;;;;;;8.05;2.30;;;20.00;99.90;;;;;;5049039;28;20086;-65
2022/10/04 13:34:08;;;;;;;5.57;2.60;;;19.80;99.90;;;;;;5049096;28;20484;-65
2022/10/04 13:37:12;;;;;;;4.55;2.35;;;19.70;99.90;;;;;;5049857;28;20025;-65
2022/10/04 13:39:41;;;;;;;7.43;2.60;;;19.40;99.90;;;;;;5044535;28;20044;-64
2022/10/04 13:42:36;;;;;;;5.30;2.78;;;19.90;99.90;;;;;;5049149;28;20107;-68
2022/10/04 13:45:07;;;;;;;3.88;2.47;;;20.00;99.90;;;;;;5048847;28;20063;-66
2022/10/04 13:47:53;;;;;;;4.85;2.30;;;20.10;99.90;;;;;;5049429;28;20036;-64
2022/10/04 13:50:39;;;;;;;4.95;2.42;;;20.10;99.90;;;;;;5028994;28;20029;-63
2022/10/04 13:57:03;;;;;;;4.95;2.53;;;19.90;99.90;;;;;;5028636;28;20463;-66
2022/10/04 13:59:46;;;;;;;6.07;2.58;;;20.10;99.90;;;;;;5029154;28;20029;-65
2022/10/04 14:02:39;;;;;;;7.32;3.00;;;20.30;99.90;;;;;;5036960;28;20041;-65
2022/10/04 14:05:42;;;;;;;10.10;2.90;;;19.90;99.90;;;;;;5047861;28;20110;-70
2022/10/04 14:08:10;;;;;;;6.95;2.60;;;20.00;99.90;;;;;;5048919;28;20065;-68
2022/10/04 14:10:52;;;;;;;4.80;2.78;;;20.10;99.90;;;;;;5049295;28;20128;-66